createdAt,value
2017-10-13T00:10:12.858Z,92.35
2017-10-13T00:30:13.335Z,95.37
2017-10-13T00:50:13.765Z,82.16
2017-10-13T01:10:14.165Z,85.46
2017-10-13T01:30:14.641Z,75.91
2017-10-13T01:50:15.253Z,75.71
2017-10-13T02:10:15.602Z,87.68
2017-10-13T02:30:15.958Z,80.75
2017-10-13T02:50:16.290Z,57.44
2017-10-13T03:10:16.888Z,67.04
2017-10-13T03:30:17.152Z,74.27
2017-10-13T03:50:17.573Z,47.73
2017-10-13T04:10:18.110Z,79.73
2017-10-13T04:30:18.561Z,67.13
2017-10-13T04:50:18.900Z,25.47
2017-10-13T05:10:19.531Z,75.06
2017-10-13T05:29:36.476Z,67.83
2017-10-13T05:49:36.011Z,46.29
2017-10-13T06:09:36.546Z,72.22
2017-10-13T06:29:37.073Z,97.56
2017-10-13T06:49:37.575Z,97.28
2017-10-13T07:09:38.078Z,93.80
2017-10-13T07:29:38.575Z,97.86
2017-10-13T07:59:39.326Z,91.02
2017-10-13T08:19:39.828Z,88.05
2017-10-13T08:39:40.317Z,87.69
2017-10-13T08:59:40.845Z,37.03
2017-10-13T09:19:41.393Z,50.00
2017-10-13T09:39:41.859Z,77.67
2017-10-13T09:59:42.486Z,48.49
2017-10-13T10:19:43.038Z,18.21
2017-10-13T10:39:43.582Z,65.88
2017-10-13T10:59:44.094Z,79.99
2017-10-13T11:19:44.643Z,87.24
2017-10-13T11:39:45.166Z,45.58
2017-10-13T11:59:45.689Z,16.43
2017-10-13T12:19:46.168Z,2.18
2017-10-13T12:39:46.695Z,22.62
2017-10-13T12:59:47.167Z,45.01
2017-10-13T13:19:47.698Z,60.01
2017-10-13T13:39:48.163Z,64.04
2017-10-13T13:59:48.693Z,18.71
2017-10-13T14:19:49.201Z,0.00
2017-10-13T14:39:49.693Z,0.00
2017-10-13T14:59:50.190Z,0.00
2017-10-13T15:29:50.938Z,0.00
2017-10-13T15:49:51.441Z,0.00
2017-10-13T16:09:51.937Z,0.18
2017-10-13T16:29:52.440Z,35.43
2017-10-13T16:49:52.901Z,86.40
2017-10-13T17:10:37.898Z,58.02
2017-10-13T17:30:38.367Z,100.00
2017-10-13T17:50:38.787Z,99.74
2017-10-13T18:10:39.233Z,96.66
2017-10-13T18:30:39.739Z,86.23
2017-10-13T18:50:40.159Z,80.75
2017-10-13T19:10:40.793Z,69.18
2017-10-13T19:30:41.210Z,75.90
2017-10-13T19:50:41.658Z,90.76
2017-10-13T20:10:42.082Z,86.57
2017-10-13T20:30:42.404Z,69.35
2017-10-13T20:50:42.892Z,71.23
2017-10-13T21:10:43.396Z,71.64
2017-10-13T21:45:44.172Z,96.77
2017-10-13T22:05:44.703Z,100.00
2017-10-13T22:25:45.173Z,99.99
2017-10-13T22:45:45.550Z,99.86
2017-10-13T23:05:46.254Z,99.16
2017-10-13T23:25:46.768Z,96.93
2017-10-13T23:45:47.307Z,76.97
